sensor_id;sensor_type;location;lat;lon;timestamp;temperature;humidity
52439;DHT22;38359;53.150;6.504;2022-07-23T00:01:58;15.10;99.90
52439;DHT22;38359;53.150;6.504;2022-07-23T00:04:23;15.00;99.90
52439;DHT22;38359;53.150;6.504;2022-07-23T00:06:49;15.10;99.90
52439;DHT22;38359;53.150;6.504;2022-07-23T00:09:15;15.00;99.90
52439;DHT22;38359;53.150;6.504;2022-07-23T00:11:41;15.10;99.90
52439;DHT22;38359;53.150;6.504;2022-07-23T00:14:06;15.10;99.90
52439;DHT22;38359;53.150;6.504;2022-07-23T00:16:32;15.10;99.90
52439;DHT22;38359;53.150;6.504;2022-07-23T00:18:58;15.10;99.90
52439;DHT22;38359;53.150;6.504;2022-07-23T00:21:29;15.10;99.90
52439;DHT22;38359;53.150;6.504;2022-07-23T00:23:55;15.10;99.90
52439;DHT22;38359;53.150;6.504;2022-07-23T00:26:22;15.00;99.90
52439;DHT22;38359;53.150;6.504;2022-07-23T00:28:47;15.00;99.90
52439;DHT22;38359;53.150;6.504;2022-07-23T00:31:13;14.90;99.90
52439;DHT22;38359;53.150;6.504;2022-07-23T00:33:39;15.00;99.90
52439;DHT22;38359;53.150;6.504;2022-07-23T00:36:05;14.90;99.90
52439;DHT22;38359;53.150;6.504;2022-07-23T00:38:31;14.90;99.90
52439;DHT22;38359;53.150;6.504;2022-07-23T00:40:57;14.90;99.90
52439;DHT22;38359;53.150;6.504;2022-07-23T00:43:23;15.00;99.90
52439;DHT22;38359;53.150;6.504;2022-07-23T00:45:50;15.00;99.90
52439;DHT22;38359;53.150;6.504;2022-07-23T00:48:16;15.00;99.90
52439;DHT22;38359;53.150;6.504;2022-07-23T00:50:43;15.00;99.90
52439;DHT22;38359;53.150;6.504;2022-07-23T00:53:10;15.00;99.90
52439;DHT22;38359;53.150;6.504;2022-07-23T00:55:36;14.90;99.90
52439;DHT22;38359;53.150;6.504;2022-07-23T00:58:02;15.00;99.90
52439;DHT22;38359;53.150;6.504;2022-07-23T01:00:28;15.00;99.90
52439;DHT22;38359;53.150;6.504;2022-07-23T01:02:54;15.00;99.90
52439;DHT22;38359;53.150;6.504;2022-07-23T01:05:20;15.00;99.90
52439;DHT22;38359;53.150;6.504;2022-07-23T01:07:48;15.00;99.90
52439;DHT22;38359;53.150;6.504;2022-07-23T01:10:15;15.10;99.90
52439;DHT22;38359;53.150;6.504;2022-07-23T01:13:04;15.00;99.90
52439;DHT22;38359;53.150;6.504;2022-07-23T01:15:36;15.00;99.90
52439;DHT22;38359;53.150;6.504;2022-07-23T01:18:03;15.00;99.90
52439;DHT22;38359;53.150;6.504;2022-07-23T01:20:30;14.90;99.90
52439;DHT22;38359;53.150;6.504;2022-07-23T01:22:57;14.90;99.90
52439;DHT22;38359;53.150;6.504;2022-07-23T01:25:23;14.90;99.90
52439;DHT22;38359;53.150;6.504;2022-07-23T01:27:49;14.70;99.90
52439;DHT22;38359;53.150;6.504;2022-07-23T01:30:14;14.60;99.90
52439;DHT22;38359;53.150;6.504;2022-07-23T01:32:41;14.50;99.90
52439;DHT22;38359;53.150;6.504;2022-07-23T01:35:07;14.40;99.90
52439;DHT22;38359;53.150;6.504;2022-07-23T01:37:33;14.40;99.90
52439;DHT22;38359;53.150;6.504;2022-07-23T01:39:59;14.30;99.90
52439;DHT22;38359;53.150;6.504;2022-07-23T01:42:25;14.30;99.90
52439;DHT22;38359;53.150;6.504;2022-07-23T01:44:51;14.20;99.90
52439;DHT22;38359;53.150;6.504;2022-07-23T01:47:17;14.00;99.90
52439;DHT22;38359;53.150;6.504;2022-07-23T01:49:43;14.00;99.90
52439;DHT22;38359;53.150;6.504;2022-07-23T01:52:08;14.00;99.90
52439;DHT22;38359;53.150;6.504;2022-07-23T01:54:37;14.00;99.90
52439;DHT22;38359;53.150;6.504;2022-07-23T01:57:05;13.80;99.90
52439;DHT22;38359;53.150;6.504;2022-07-23T01:59:32;13.90;99.90
52439;DHT22;38359;53.150;6.504;2022-07-23T02:01:58;13.90;99.90
52439;DHT22;38359;53.150;6.504;2022-07-23T02:04:24;13.90;99.90
52439;DHT22;38359;53.150;6.504;2022-07-23T02:06:51;13.80;99.90
52439;DHT22;38359;53.150;6.504;2022-07-23T02:09:17;13.70;99.90
52439;DHT22;38359;53.150;6.504;2022-07-23T02:11:43;13.70;99.90
52439;DHT22;38359;53.150;6.504;2022-07-23T02:14:09;13.70;99.90
52439;DHT22;38359;53.150;6.504;2022-07-23T02:16:35;13.60;99.90
52439;DHT22;38359;53.150;6.504;2022-07-23T02:19:02;13.50;99.90
52439;DHT22;38359;53.150;6.504;2022-07-23T02:21:28;13.50;99.90
52439;DHT22;38359;53.150;6.504;2022-07-23T02:23:54;13.40;99.90
52439;DHT22;38359;53.150;6.504;2022-07-23T02:26:20;13.50;99.90
52439;DHT22;38359;53.150;6.504;2022-07-23T02:28:46;13.50;99.90
52439;DHT22;38359;53.150;6.504;2022-07-23T02:31:11;13.50;99.90
52439;DHT22;38359;53.150;6.504;2022-07-23T02:33:37;13.60;99.90
52439;DHT22;38359;53.150;6.504;2022-07-23T02:36:03;13.90;99.90
52439;DHT22;38359;53.150;6.504;2022-07-23T02:38:29;13.60;99.90
52439;DHT22;38359;53.150;6.504;2022-07-23T02:40:54;13.60;99.90
52439;DHT22;38359;53.150;6.504;2022-07-23T02:43:20;13.60;99.90
52439;DHT22;38359;53.150;6.504;2022-07-23T02:45:46;13.60;99.90
52439;DHT22;38359;53.150;6.504;2022-07-23T02:48:11;13.60;99.90
52439;DHT22;38359;53.150;6.504;2022-07-23T02:50:40;13.60;99.90
52439;DHT22;38359;53.150;6.504;2022-07-23T02:53:06;13.70;99.90
52439;DHT22;38359;53.150;6.504;2022-07-23T02:55:32;13.70;99.90
52439;DHT22;38359;53.150;6.504;2022-07-23T02:57:57;13.60;99.90
52439;DHT22;38359;53.150;6.504;2022-07-23T03:00:23;13.50;99.90
52439;DHT22;38359;53.150;6.504;2022-07-23T03:02:49;13.50;99.90
52439;DHT22;38359;53.150;6.504;2022-07-23T03:05:15;13.50;99.90
52439;DHT22;38359;53.150;6.504;2022-07-23T03:07:40;13.40;99.90
52439;DHT22;38359;53.150;6.504;2022-07-23T03:10:06;13.40;99.90
52439;DHT22;38359;53.150;6.504;2022-07-23T03:12:33;13.40;99.90
52439;DHT22;38359;53.150;6.504;2022-07-23T03:14:59;13.40;99.90
52439;DHT22;38359;53.150;6.504;2022-07-23T03:17:24;13.40;99.90
52439;DHT22;38359;53.150;6.504;2022-07-23T03:19:50;13.40;99.90
52439;DHT22;38359;53.150;6.504;2022-07-23T03:22:16;13.40;99.90
52439;DHT22;38359;53.150;6.504;2022-07-23T03:24:42;13.40;99.90
52439;DHT22;38359;53.150;6.504;2022-07-23T03:27:23;13.30;99.90
52439;DHT22;38359;53.150;6.504;2022-07-23T03:29:51;13.30;99.90
52439;DHT22;38359;53.150;6.504;2022-07-23T03:32:17;13.20;99.90
52439;DHT22;38359;53.150;6.504;2022-07-23T03:34:43;13.20;99.90
52439;DHT22;38359;53.150;6.504;2022-07-23T03:37:09;13.10;99.90
52439;DHT22;38359;53.150;6.504;2022-07-23T03:39:35;13.00;99.90
52439;DHT22;38359;53.150;6.504;2022-07-23T03:42:02;13.10;99.90
52439;DHT22;38359;53.150;6.504;2022-07-23T03:44:28;13.10;99.90
52439;DHT22;38359;53.150;6.504;2022-07-23T03:46:54;13.10;99.90
52439;DHT22;38359;53.150;6.504;2022-07-23T03:49:20;13.10;99.90
52439;DHT22;38359;53.150;6.504;2022-07-23T03:51:45;13.10;99.90
52439;DHT22;38359;53.150;6.504;2022-07-23T03:54:11;13.10;99.90
52439;DHT22;38359;53.150;6.504;2022-07-23T03:56:37;13.10;99.90
52439;DHT22;38359;53.150;6.504;2022-07-23T03:59:03;13.10;99.90
52439;DHT22;38359;53.150;6.504;2022-07-23T04:01:29;13.20;99.90
52439;DHT22;38359;53.150;6.504;2022-07-23T04:03:55;13.10;99.90
52439;DHT22;38359;53.150;6.504;2022-07-23T04:06:22;13.30;99.90
52439;DHT22;38359;53.150;6.504;2022-07-23T04:08:47;13.30;99.90
52439;DHT22;38359;53.150;6.504;2022-07-23T04:11:13;13.30;99.90
52439;DHT22;38359;53.150;6.504;2022-07-23T04:13:39;13.30;99.90
52439;DHT22;38359;53.150;6.504;2022-07-23T04:16:05;13.40;99.90
52439;DHT22;38359;53.150;6.504;2022-07-23T04:18:31;13.40;99.90
52439;DHT22;38359;53.150;6.504;2022-07-23T04:20:57;13.40;99.90
52439;DHT22;38359;53.150;6.504;2022-07-23T04:23:23;13.40;99.90
52439;DHT22;38359;53.150;6.504;2022-07-23T04:25:48;13.40;99.90
52439;DHT22;38359;53.150;6.504;2022-07-23T04:28:14;13.40;99.90
52439;DHT22;38359;53.150;6.504;2022-07-23T04:30:40;13.40;99.90
52439;DHT22;38359;53.150;6.504;2022-07-23T04:33:06;13.40;99.90
52439;DHT22;38359;53.150;6.504;2022-07-23T04:35:36;13.40;99.90
52439;DHT22;38359;53.150;6.504;2022-07-23T04:38:02;13.40;99.90
52439;DHT22;38359;53.150;6.504;2022-07-23T04:40:29;13.40;99.90
52439;DHT22;38359;53.150;6.504;2022-07-23T04:42:56;13.40;99.90
52439;DHT22;38359;53.150;6.504;2022-07-23T04:45:21;13.40;99.90
52439;DHT22;38359;53.150;6.504;2022-07-23T04:47:49;13.40;99.90
52439;DHT22;38359;53.150;6.504;2022-07-23T04:50:14;13.50;99.90
52439;DHT22;38359;53.150;6.504;2022-07-23T04:52:44;13.50;99.90
52439;DHT22;38359;53.150;6.504;2022-07-23T04:55:10;13.60;99.90
52439;DHT22;38359;53.150;6.504;2022-07-23T04:57:36;13.70;99.90
52439;DHT22;38359;53.150;6.504;2022-07-23T05:00:03;13.70;99.90
52439;DHT22;38359;53.150;6.504;2022-07-23T05:02:29;13.70;99.90
52439;DHT22;38359;53.150;6.504;2022-07-23T05:04:55;13.80;99.90
52439;DHT22;38359;53.150;6.504;2022-07-23T05:07:21;13.90;99.90
52439;DHT22;38359;53.150;6.504;2022-07-23T05:09:47;13.90;99.90
52439;DHT22;38359;53.150;6.504;2022-07-23T05:12:12;13.90;99.90
52439;DHT22;38359;53.150;6.504;2022-07-23T05:14:38;14.00;99.90
52439;DHT22;38359;53.150;6.504;2022-07-23T05:17:04;14.10;99.90
52439;DHT22;38359;53.150;6.504;2022-07-23T05:19:30;14.20;99.90
52439;DHT22;38359;53.150;6.504;2022-07-23T05:21:56;14.20;99.90
52439;DHT22;38359;53.150;6.504;2022-07-23T05:24:21;14.20;99.90
52439;DHT22;38359;53.150;6.504;2022-07-23T05:26:47;14.30;99.90
52439;DHT22;38359;53.150;6.504;2022-07-23T05:29:13;14.30;99.90
52439;DHT22;38359;53.150;6.504;2022-07-23T05:31:39;14.30;99.90
52439;DHT22;38359;53.150;6.504;2022-07-23T05:34:04;14.20;99.90
52439;DHT22;38359;53.150;6.504;2022-07-23T05:36:31;14.20;99.90
52439;DHT22;38359;53.150;6.504;2022-07-23T05:38:58;14.20;99.90
52439;DHT22;38359;53.150;6.504;2022-07-23T05:41:24;14.20;99.90
52439;DHT22;38359;53.150;6.504;2022-07-23T05:43:50;14.20;99.90
52439;DHT22;38359;53.150;6.504;2022-07-23T05:46:15;14.30;99.90
52439;DHT22;38359;53.150;6.504;2022-07-23T05:48:41;14.40;99.90
52439;DHT22;38359;53.150;6.504;2022-07-23T05:51:08;14.40;99.90
52439;DHT22;38359;53.150;6.504;2022-07-23T05:53:35;14.50;99.90
52439;DHT22;38359;53.150;6.504;2022-07-23T05:56:01;14.60;99.90
52439;DHT22;38359;53.150;6.504;2022-07-23T05:58:27;14.70;99.90
52439;DHT22;38359;53.150;6.504;2022-07-23T06:00:52;14.80;99.90
52439;DHT22;38359;53.150;6.504;2022-07-23T06:03:18;14.90;99.90
52439;DHT22;38359;53.150;6.504;2022-07-23T06:05:45;15.10;99.90
52439;DHT22;38359;53.150;6.504;2022-07-23T06:08:11;15.30;99.90
52439;DHT22;38359;53.150;6.504;2022-07-23T06:10:37;15.30;99.90
52439;DHT22;38359;53.150;6.504;2022-07-23T06:13:03;15.40;99.90
52439;DHT22;38359;53.150;6.504;2022-07-23T06:15:29;15.40;99.90
52439;DHT22;38359;53.150;6.504;2022-07-23T06:17:55;15.40;99.90
52439;DHT22;38359;53.150;6.504;2022-07-23T06:20:22;15.50;99.90
52439;DHT22;38359;53.150;6.504;2022-07-23T06:22:48;15.60;99.90
52439;DHT22;38359;53.150;6.504;2022-07-23T06:25:14;15.50;99.90
52439;DHT22;38359;53.150;6.504;2022-07-23T06:27:41;15.70;99.90
52439;DHT22;38359;53.150;6.504;2022-07-23T06:30:08;15.70;99.90
52439;DHT22;38359;53.150;6.504;2022-07-23T06:32:35;15.70;99.90
52439;DHT22;38359;53.150;6.504;2022-07-23T06:35:01;15.80;99.90
52439;DHT22;38359;53.150;6.504;2022-07-23T06:37:27;15.80;99.90
52439;DHT22;38359;53.150;6.504;2022-07-23T06:39:53;15.90;99.90
52439;DHT22;38359;53.150;6.504;2022-07-23T06:42:19;16.10;99.90
52439;DHT22;38359;53.150;6.504;2022-07-23T06:44:44;15.90;99.90
52439;DHT22;38359;53.150;6.504;2022-07-23T06:47:10;16.00;99.90
52439;DHT22;38359;53.150;6.504;2022-07-23T06:49:36;16.00;99.90
52439;DHT22;38359;53.150;6.504;2022-07-23T06:52:02;16.10;99.90
52439;DHT22;38359;53.150;6.504;2022-07-23T06:54:27;16.20;99.90
52439;DHT22;38359;53.150;6.504;2022-07-23T06:56:53;16.30;99.90
52439;DHT22;38359;53.150;6.504;2022-07-23T06:59:19;16.50;99.90
52439;DHT22;38359;53.150;6.504;2022-07-23T07:01:45;16.50;99.90
52439;DHT22;38359;53.150;6.504;2022-07-23T07:04:11;16.50;99.90
52439;DHT22;38359;53.150;6.504;2022-07-23T07:06:36;16.50;99.90
52439;DHT22;38359;53.150;6.504;2022-07-23T07:09:02;16.70;99.90
52439;DHT22;38359;53.150;6.504;2022-07-23T07:11:28;16.70;99.90
52439;DHT22;38359;53.150;6.504;2022-07-23T07:13:54;16.80;99.90
52439;DHT22;38359;53.150;6.504;2022-07-23T07:16:20;17.10;99.90
52439;DHT22;38359;53.150;6.504;2022-07-23T07:18:45;17.10;99.90
52439;DHT22;38359;53.150;6.504;2022-07-23T07:21:11;17.00;99.90
52439;DHT22;38359;53.150;6.504;2022-07-23T07:23:37;16.90;99.90
52439;DHT22;38359;53.150;6.504;2022-07-23T07:26:03;16.80;99.90
52439;DHT22;38359;53.150;6.504;2022-07-23T07:28:29;16.80;99.90
52439;DHT22;38359;53.150;6.504;2022-07-23T07:30:54;16.70;99.90
52439;DHT22;38359;53.150;6.504;2022-07-23T07:33:20;16.70;99.90
52439;DHT22;38359;53.150;6.504;2022-07-23T07:35:47;16.80;99.90
52439;DHT22;38359;53.150;6.504;2022-07-23T07:38:12;16.90;99.90
52439;DHT22;38359;53.150;6.504;2022-07-23T07:40:38;17.00;99.90
52439;DHT22;38359;53.150;6.504;2022-07-23T07:43:04;17.20;99.90
52439;DHT22;38359;53.150;6.504;2022-07-23T07:45:31;17.30;99.90
52439;DHT22;38359;53.150;6.504;2022-07-23T07:47:57;17.40;99.90
52439;DHT22;38359;53.150;6.504;2022-07-23T07:50:23;17.30;99.90
52439;DHT22;38359;53.150;6.504;2022-07-23T07:52:49;17.50;99.90
52439;DHT22;38359;53.150;6.504;2022-07-23T07:55:16;17.40;99.90
52439;DHT22;38359;53.150;6.504;2022-07-23T07:57:41;17.40;99.90
52439;DHT22;38359;53.150;6.504;2022-07-23T08:00:09;17.50;99.90
52439;DHT22;38359;53.150;6.504;2022-07-23T08:02:48;17.50;99.90
52439;DHT22;38359;53.150;6.504;2022-07-23T08:05:19;17.50;99.90
52439;DHT22;38359;53.150;6.504;2022-07-23T08:07:46;17.80;99.90
52439;DHT22;38359;53.150;6.504;2022-07-23T08:10:12;17.90;99.90
52439;DHT22;38359;53.150;6.504;2022-07-23T08:12:43;17.90;99.90
52439;DHT22;38359;53.150;6.504;2022-07-23T08:15:15;17.80;99.90
52439;DHT22;38359;53.150;6.504;2022-07-23T08:17:43;18.00;99.90
52439;DHT22;38359;53.150;6.504;2022-07-23T08:20:10;17.80;99.90
52439;DHT22;38359;53.150;6.504;2022-07-23T08:23:11;17.80;99.90
52439;DHT22;38359;53.150;6.504;2022-07-23T08:25:40;17.90;99.90
52439;DHT22;38359;53.150;6.504;2022-07-23T08:28:09;18.10;99.90
52439;DHT22;38359;53.150;6.504;2022-07-23T08:30:37;18.40;99.90
52439;DHT22;38359;53.150;6.504;2022-07-23T08:35:37;18.40;99.90
52439;DHT22;38359;53.150;6.504;2022-07-23T08:38:07;18.50;99.90
52439;DHT22;38359;53.150;6.504;2022-07-23T08:40:39;18.60;99.90
52439;DHT22;38359;53.150;6.504;2022-07-23T08:43:09;18.90;99.90
52439;DHT22;38359;53.150;6.504;2022-07-23T08:45:39;19.20;99.90
52439;DHT22;38359;53.150;6.504;2022-07-23T08:48:17;18.90;99.90
52439;DHT22;38359;53.150;6.504;2022-07-23T08:50:52;19.20;99.90
52439;DHT22;38359;53.150;6.504;2022-07-23T08:53:23;19.00;99.90
52439;DHT22;38359;53.150;6.504;2022-07-23T08:55:52;19.50;99.90
52439;DHT22;38359;53.150;6.504;2022-07-23T08:58:20;19.60;99.90
52439;DHT22;38359;53.150;6.504;2022-07-23T09:00:47;19.40;99.90
52439;DHT22;38359;53.150;6.504;2022-07-23T09:03:34;19.40;99.90
52439;DHT22;38359;53.150;6.504;2022-07-23T09:06:01;19.20;99.90
52439;DHT22;38359;53.150;6.504;2022-07-23T09:08:42;18.80;99.90
52439;DHT22;38359;53.150;6.504;2022-07-23T09:11:12;18.70;99.90
52439;DHT22;38359;53.150;6.504;2022-07-23T09:13:55;18.70;99.90
52439;DHT22;38359;53.150;6.504;2022-07-23T09:16:27;18.40;99.90
52439;DHT22;38359;53.150;6.504;2022-07-23T09:18:59;18.30;99.90
52439;DHT22;38359;53.150;6.504;2022-07-23T09:24:05;18.80;99.90
52439;DHT22;38359;53.150;6.504;2022-07-23T09:26:35;18.90;99.90
52439;DHT22;38359;53.150;6.504;2022-07-23T09:31:54;19.00;99.90
52439;DHT22;38359;53.150;6.504;2022-07-23T09:34:34;19.10;99.90
52439;DHT22;38359;53.150;6.504;2022-07-23T09:37:12;19.00;99.90
52439;DHT22;38359;53.150;6.504;2022-07-23T09:39:43;19.20;99.90
52439;DHT22;38359;53.150;6.504;2022-07-23T09:44:44;18.90;99.90
52439;DHT22;38359;53.150;6.504;2022-07-23T09:47:11;19.10;99.90
52439;DHT22;38359;53.150;6.504;2022-07-23T09:49:37;19.00;99.90
52439;DHT22;38359;53.150;6.504;2022-07-23T09:52:04;18.90;99.90
52439;DHT22;38359;53.150;6.504;2022-07-23T09:54:35;19.40;99.90
52439;DHT22;38359;53.150;6.504;2022-07-23T09:57:13;19.30;99.90
52439;DHT22;38359;53.150;6.504;2022-07-23T09:59:42;19.30;99.90
52439;DHT22;38359;53.150;6.504;2022-07-23T10:02:10;19.30;99.90
52439;DHT22;38359;53.150;6.504;2022-07-23T10:04:38;19.10;99.90
52439;DHT22;38359;53.150;6.504;2022-07-23T10:07:07;19.60;99.90
52439;DHT22;38359;53.150;6.504;2022-07-23T10:09:40;19.40;99.90
52439;DHT22;38359;53.150;6.504;2022-07-23T10:12:14;19.30;99.90
52439;DHT22;38359;53.150;6.504;2022-07-23T10:14:43;19.10;99.90
52439;DHT22;38359;53.150;6.504;2022-07-23T10:17:09;19.30;99.90
52439;DHT22;38359;53.150;6.504;2022-07-23T10:19:35;19.20;99.90
52439;DHT22;38359;53.150;6.504;2022-07-23T10:34:07;19.30;99.90
52439;DHT22;38359;53.150;6.504;2022-07-23T10:36:49;19.30;99.90
52439;DHT22;38359;53.150;6.504;2022-07-23T10:39:26;19.20;99.90
52439;DHT22;38359;53.150;6.504;2022-07-23T10:42:09;19.70;99.90
52439;DHT22;38359;53.150;6.504;2022-07-23T10:44:44;20.00;99.90
52439;DHT22;38359;53.150;6.504;2022-07-23T10:47:21;19.70;99.90
52439;DHT22;38359;53.150;6.504;2022-07-23T10:50:25;19.70;99.90
52439;DHT22;38359;53.150;6.504;2022-07-23T10:53:14;19.70;99.90
52439;DHT22;38359;53.150;6.504;2022-07-23T10:55:45;19.40;99.90
52439;DHT22;38359;53.150;6.504;2022-07-23T10:58:22;19.40;99.90
52439;DHT22;38359;53.150;6.504;2022-07-23T11:00:49;19.40;99.90
52439;DHT22;38359;53.150;6.504;2022-07-23T11:03:34;19.40;99.90
52439;DHT22;38359;53.150;6.504;2022-07-23T11:06:05;19.30;99.90
52439;DHT22;38359;53.150;6.504;2022-07-23T11:08:31;19.10;99.90
52439;DHT22;38359;53.150;6.504;2022-07-23T11:13:30;19.30;99.90
52439;DHT22;38359;53.150;6.504;2022-07-23T11:24:09;19.00;99.90
52439;DHT22;38359;53.150;6.504;2022-07-23T11:26:43;19.20;99.90
52439;DHT22;38359;53.150;6.504;2022-07-23T11:31:55;19.20;99.90
52439;DHT22;38359;53.150;6.504;2022-07-23T11:34:43;19.60;99.90
52439;DHT22;38359;53.150;6.504;2022-07-23T11:37:26;19.60;99.90
52439;DHT22;38359;53.150;6.504;2022-07-23T11:39:55;19.90;99.90
52439;DHT22;38359;53.150;6.504;2022-07-23T11:42:21;19.70;99.90
52439;DHT22;38359;53.150;6.504;2022-07-23T11:44:48;20.10;99.90
52439;DHT22;38359;53.150;6.504;2022-07-23T11:47:14;20.10;99.90
52439;DHT22;38359;53.150;6.504;2022-07-23T11:52:20;20.30;99.90
52439;DHT22;38359;53.150;6.504;2022-07-23T11:57:18;21.00;99.90
52439;DHT22;38359;53.150;6.504;2022-07-23T11:59:47;20.60;99.90
52439;DHT22;38359;53.150;6.504;2022-07-23T12:02:14;21.30;99.90
52439;DHT22;38359;53.150;6.504;2022-07-23T12:04:46;21.40;99.90
52439;DHT22;38359;53.150;6.504;2022-07-23T12:07:33;21.40;99.90
52439;DHT22;38359;53.150;6.504;2022-07-23T12:12:45;21.50;99.90
52439;DHT22;38359;53.150;6.504;2022-07-23T12:15:18;21.20;99.90
52439;DHT22;38359;53.150;6.504;2022-07-23T12:17:47;21.30;99.90
52439;DHT22;38359;53.150;6.504;2022-07-23T12:20:16;21.20;99.90
52439;DHT22;38359;53.150;6.504;2022-07-23T12:22:52;21.80;99.90
52439;DHT22;38359;53.150;6.504;2022-07-23T12:25:23;21.60;99.90
52439;DHT22;38359;53.150;6.504;2022-07-23T12:28:16;21.60;99.90
52439;DHT22;38359;53.150;6.504;2022-07-23T12:36:09;22.10;99.90
52439;DHT22;38359;53.150;6.504;2022-07-23T12:38:47;21.90;99.90
52439;DHT22;38359;53.150;6.504;2022-07-23T12:41:17;22.00;99.90
52439;DHT22;38359;53.150;6.504;2022-07-23T12:43:44;22.30;99.90
52439;DHT22;38359;53.150;6.504;2022-07-23T12:46:19;22.30;99.90
52439;DHT22;38359;53.150;6.504;2022-07-23T12:51:24;21.70;99.90
52439;DHT22;38359;53.150;6.504;2022-07-23T12:53:59;22.40;99.90
52439;DHT22;38359;53.150;6.504;2022-07-23T12:56:32;23.00;99.90
52439;DHT22;38359;53.150;6.504;2022-07-23T12:59:10;22.60;99.90
52439;DHT22;38359;53.150;6.504;2022-07-23T13:01:45;22.40;99.90
52439;DHT22;38359;53.150;6.504;2022-07-23T13:04:21;22.10;99.90
52439;DHT22;38359;53.150;6.504;2022-07-23T13:06:49;21.90;99.90
52439;DHT22;38359;53.150;6.504;2022-07-23T13:09:24;21.90;99.90
52439;DHT22;38359;53.150;6.504;2022-07-23T13:11:52;22.30;99.90
52439;DHT22;38359;53.150;6.504;2022-07-23T13:14:20;22.30;99.90
52439;DHT22;38359;53.150;6.504;2022-07-23T13:16:47;21.90;99.90
52439;DHT22;38359;53.150;6.504;2022-07-23T13:19:14;22.40;99.90
52439;DHT22;38359;53.150;6.504;2022-07-23T13:21:41;22.70;99.90
52439;DHT22;38359;53.150;6.504;2022-07-23T13:24:09;23.20;99.90
52439;DHT22;38359;53.150;6.504;2022-07-23T13:26:36;23.20;99.90
52439;DHT22;38359;53.150;6.504;2022-07-23T13:29:03;23.80;99.90
52439;DHT22;38359;53.150;6.504;2022-07-23T13:31:29;24.10;99.90
52439;DHT22;38359;53.150;6.504;2022-07-23T13:33:55;23.40;99.90
52439;DHT22;38359;53.150;6.504;2022-07-23T13:36:21;22.50;99.90
52439;DHT22;38359;53.150;6.504;2022-07-23T13:38:47;22.40;99.90
52439;DHT22;38359;53.150;6.504;2022-07-23T13:41:12;23.00;99.90
52439;DHT22;38359;53.150;6.504;2022-07-23T13:43:38;24.00;99.90
52439;DHT22;38359;53.150;6.504;2022-07-23T13:46:04;24.10;99.10
52439;DHT22;38359;53.150;6.504;2022-07-23T13:48:30;24.00;99.90
52439;DHT22;38359;53.150;6.504;2022-07-23T13:50:56;24.30;98.90
52439;DHT22;38359;53.150;6.504;2022-07-23T13:53:23;24.20;99.40
52439;DHT22;38359;53.150;6.504;2022-07-23T13:55:50;24.80;99.40
52439;DHT22;38359;53.150;6.504;2022-07-23T13:58:17;25.90;98.10
52439;DHT22;38359;53.150;6.504;2022-07-23T14:00:46;25.50;97.90
52439;DHT22;38359;53.150;6.504;2022-07-23T14:03:15;23.70;97.90
52439;DHT22;38359;53.150;6.504;2022-07-23T14:05:42;24.20;99.40
52439;DHT22;38359;53.150;6.504;2022-07-23T14:08:08;23.70;98.80
52439;DHT22;38359;53.150;6.504;2022-07-23T14:10:35;24.30;98.80
52439;DHT22;38359;53.150;6.504;2022-07-23T14:13:03;23.70;99.00
52439;DHT22;38359;53.150;6.504;2022-07-23T14:15:30;23.60;99.30
52439;DHT22;38359;53.150;6.504;2022-07-23T14:17:56;24.30;99.40
52439;DHT22;38359;53.150;6.504;2022-07-23T14:20:23;23.70;99.30
52439;DHT22;38359;53.150;6.504;2022-07-23T14:22:50;24.40;99.80
52439;DHT22;38359;53.150;6.504;2022-07-23T14:25:16;24.20;98.80
52439;DHT22;38359;53.150;6.504;2022-07-23T14:27:44;24.50;98.80
52439;DHT22;38359;53.150;6.504;2022-07-23T14:30:11;24.70;98.30
52439;DHT22;38359;53.150;6.504;2022-07-23T14:32:37;24.90;97.30
52439;DHT22;38359;53.150;6.504;2022-07-23T14:35:04;25.20;97.60
52439;DHT22;38359;53.150;6.504;2022-07-23T14:37:31;25.80;96.20
52439;DHT22;38359;53.150;6.504;2022-07-23T14:39:57;26.10;96.20
52439;DHT22;38359;53.150;6.504;2022-07-23T14:42:23;26.10;96.50
52439;DHT22;38359;53.150;6.504;2022-07-23T14:44:48;26.00;96.50
52439;DHT22;38359;53.150;6.504;2022-07-23T14:47:14;25.90;95.50
52439;DHT22;38359;53.150;6.504;2022-07-23T14:49:41;25.10;96.00
52439;DHT22;38359;53.150;6.504;2022-07-23T14:52:07;24.70;97.00
52439;DHT22;38359;53.150;6.504;2022-07-23T14:54:33;25.00;96.80
52439;DHT22;38359;53.150;6.504;2022-07-23T14:57:00;24.70;96.80
52439;DHT22;38359;53.150;6.504;2022-07-23T14:59:28;24.40;97.20
52439;DHT22;38359;53.150;6.504;2022-07-23T15:01:56;25.20;97.70
52439;DHT22;38359;53.150;6.504;2022-07-23T15:04:22;25.30;96.80
52439;DHT22;38359;53.150;6.504;2022-07-23T15:06:48;25.10;96.90
52439;DHT22;38359;53.150;6.504;2022-07-23T15:09:14;25.30;96.90
52439;DHT22;38359;53.150;6.504;2022-07-23T15:11:40;25.30;96.40
52439;DHT22;38359;53.150;6.504;2022-07-23T15:14:07;25.90;96.30
52439;DHT22;38359;53.150;6.504;2022-07-23T15:16:33;25.80;95.50
52439;DHT22;38359;53.150;6.504;2022-07-23T15:18:59;26.10;95.90
52439;DHT22;38359;53.150;6.504;2022-07-23T15:21:27;26.70;95.40
52439;DHT22;38359;53.150;6.504;2022-07-23T15:23:55;26.40;95.00
52439;DHT22;38359;53.150;6.504;2022-07-23T15:26:24;26.00;95.50
52439;DHT22;38359;53.150;6.504;2022-07-23T15:28:51;25.70;96.10
52439;DHT22;38359;53.150;6.504;2022-07-23T15:31:17;26.20;95.30
52439;DHT22;38359;53.150;6.504;2022-07-23T15:33:43;27.50;94.50
52439;DHT22;38359;53.150;6.504;2022-07-23T15:36:08;28.30;93.70
52439;DHT22;38359;53.150;6.504;2022-07-23T15:38:35;26.60;93.70
52439;DHT22;38359;53.150;6.504;2022-07-23T15:41:01;25.80;94.30
52439;DHT22;38359;53.150;6.504;2022-07-23T15:43:27;25.50;95.10
52439;DHT22;38359;53.150;6.504;2022-07-23T15:45:53;26.20;95.00
52439;DHT22;38359;53.150;6.504;2022-07-23T15:48:19;26.10;94.20
52439;DHT22;38359;53.150;6.504;2022-07-23T15:50:46;26.70;94.70
52439;DHT22;38359;53.150;6.504;2022-07-23T15:53:12;27.90;94.40
52439;DHT22;38359;53.150;6.504;2022-07-23T15:55:38;28.80;93.20
52439;DHT22;38359;53.150;6.504;2022-07-23T15:58:05;28.80;92.60
52439;DHT22;38359;53.150;6.504;2022-07-23T16:00:31;28.70;92.60
52439;DHT22;38359;53.150;6.504;2022-07-23T16:02:57;28.50;92.80
52439;DHT22;38359;53.150;6.504;2022-07-23T16:05:23;27.70;92.40
52439;DHT22;38359;53.150;6.504;2022-07-23T16:08:02;27.30;93.50
52439;DHT22;38359;53.150;6.504;2022-07-23T16:10:29;27.10;93.10
52439;DHT22;38359;53.150;6.504;2022-07-23T16:12:55;27.70;92.90
52439;DHT22;38359;53.150;6.504;2022-07-23T16:15:22;27.40;92.70
52439;DHT22;38359;53.150;6.504;2022-07-23T16:17:48;27.40;92.90
52439;DHT22;38359;53.150;6.504;2022-07-23T16:20:14;28.00;92.80
52439;DHT22;38359;53.150;6.504;2022-07-23T16:22:40;28.10;92.20
52439;DHT22;38359;53.150;6.504;2022-07-23T16:25:06;29.40;92.30
52439;DHT22;38359;53.150;6.504;2022-07-23T16:27:34;30.10;91.20